sensor_id;sensor_type;location;lat;lon;timestamp;P1;durP1;ratioP1;P2;durP2;ratioP2
45728;SDS011;31439;53.512;10.206;2023-04-06T00:01:31;6.53;;;3.65;;
45728;SDS011;31439;53.512;10.206;2023-04-06T00:03:57;6.38;;;3.67;;
45728;SDS011;31439;53.512;10.206;2023-04-06T00:06:22;10.38;;;3.80;;
45728;SDS011;31439;53.512;10.206;2023-04-06T00:08:48;6.38;;;3.80;;
45728;SDS011;31439;53.512;10.206;2023-04-06T00:11:14;7.65;;;3.78;;
45728;SDS011;31439;53.512;10.206;2023-04-06T00:13:41;7.15;;;3.80;;
45728;SDS011;31439;53.512;10.206;2023-04-06T00:16:07;5.18;;;3.55;;
45728;SDS011;31439;53.512;10.206;2023-04-06T00:18:33;6.65;;;3.60;;
45728;SDS011;31439;53.512;10.206;2023-04-06T00:20:59;5.60;;;3.42;;
45728;SDS011;31439;53.512;10.206;2023-04-06T00:23:25;6.65;;;3.80;;
45728;SDS011;31439;53.512;10.206;2023-04-06T00:25:50;6.20;;;3.30;;
45728;SDS011;31439;53.512;10.206;2023-04-06T00:28:16;6.72;;;3.67;;
45728;SDS011;31439;53.512;10.206;2023-04-06T00:30:42;8.55;;;3.60;;
45728;SDS011;31439;53.512;10.206;2023-04-06T00:33:08;7.35;;;4.25;;
45728;SDS011;31439;53.512;10.206;2023-04-06T00:35:33;9.40;;;3.83;;
45728;SDS011;31439;53.512;10.206;2023-04-06T00:37:59;6.47;;;3.65;;
45728;SDS011;31439;53.512;10.206;2023-04-06T00:40:25;5.72;;;3.90;;
45728;SDS011;31439;53.512;10.206;2023-04-06T00:42:53;6.30;;;3.85;;
45728;SDS011;31439;53.512;10.206;2023-04-06T00:45:19;7.22;;;3.80;;
45728;SDS011;31439;53.512;10.206;2023-04-06T00:47:45;10.00;;;3.80;;
45728;SDS011;31439;53.512;10.206;2023-04-06T00:50:11;6.82;;;3.88;;
45728;SDS011;31439;53.512;10.206;2023-04-06T00:52:36;7.47;;;3.67;;
45728;SDS011;31439;53.512;10.206;2023-04-06T00:55:03;7.35;;;3.80;;
45728;SDS011;31439;53.512;10.206;2023-04-06T00:57:29;7.82;;;4.03;;
45728;SDS011;31439;53.512;10.206;2023-04-06T00:59:56;6.30;;;3.42;;
45728;SDS011;31439;53.512;10.206;2023-04-06T01:02:23;7.95;;;3.90;;
45728;SDS011;31439;53.512;10.206;2023-04-06T01:04:51;6.20;;;3.80;;
45728;SDS011;31439;53.512;10.206;2023-04-06T01:07:20;6.90;;;3.90;;
45728;SDS011;31439;53.512;10.206;2023-04-06T01:09:45;6.10;;;3.35;;
45728;SDS011;31439;53.512;10.206;2023-04-06T01:12:11;5.70;;;3.92;;
45728;SDS011;31439;53.512;10.206;2023-04-06T01:14:37;7.00;;;3.88;;
45728;SDS011;31439;53.512;10.206;2023-04-06T01:17:02;9.18;;;4.32;;
45728;SDS011;31439;53.512;10.206;2023-04-06T01:19:28;7.78;;;4.32;;
45728;SDS011;31439;53.512;10.206;2023-04-06T01:21:54;7.47;;;4.18;;
45728;SDS011;31439;53.512;10.206;2023-04-06T01:24:20;6.85;;;3.88;;
45728;SDS011;31439;53.512;10.206;2023-04-06T01:26:47;7.35;;;4.03;;
45728;SDS011;31439;53.512;10.206;2023-04-06T01:29:13;9.43;;;3.72;;
45728;SDS011;31439;53.512;10.206;2023-04-06T01:31:39;8.25;;;4.32;;
45728;SDS011;31439;53.512;10.206;2023-04-06T01:34:05;8.43;;;4.10;;
45728;SDS011;31439;53.512;10.206;2023-04-06T01:36:31;7.25;;;4.13;;
45728;SDS011;31439;53.512;10.206;2023-04-06T01:38:56;8.50;;;4.00;;
45728;SDS011;31439;53.512;10.206;2023-04-06T01:41:22;8.38;;;4.10;;
45728;SDS011;31439;53.512;10.206;2023-04-06T01:43:48;6.93;;;4.00;;
45728;SDS011;31439;53.512;10.206;2023-04-06T01:46:14;6.95;;;4.20;;
45728;SDS011;31439;53.512;10.206;2023-04-06T01:48:41;8.70;;;3.83;;
45728;SDS011;31439;53.512;10.206;2023-04-06T01:51:07;7.03;;;4.55;;
45728;SDS011;31439;53.512;10.206;2023-04-06T01:53:32;8.68;;;4.18;;
45728;SDS011;31439;53.512;10.206;2023-04-06T01:55:58;6.30;;;4.13;;
45728;SDS011;31439;53.512;10.206;2023-04-06T01:58:24;9.48;;;5.10;;
45728;SDS011;31439;53.512;10.206;2023-04-06T02:00:50;7.75;;;4.20;;
45728;SDS011;31439;53.512;10.206;2023-04-06T02:03:16;6.50;;;4.10;;
45728;SDS011;31439;53.512;10.206;2023-04-06T02:05:41;6.65;;;4.22;;
45728;SDS011;31439;53.512;10.206;2023-04-06T02:08:07;6.65;;;4.45;;
45728;SDS011;31439;53.512;10.206;2023-04-06T02:10:34;9.30;;;3.90;;
45728;SDS011;31439;53.512;10.206;2023-04-06T02:13:00;7.20;;;4.10;;
45728;SDS011;31439;53.512;10.206;2023-04-06T02:15:26;9.57;;;4.45;;
45728;SDS011;31439;53.512;10.206;2023-04-06T02:17:51;6.35;;;4.28;;
45728;SDS011;31439;53.512;10.206;2023-04-06T02:20:17;6.90;;;4.00;;
45728;SDS011;31439;53.512;10.206;2023-04-06T02:22:43;6.88;;;3.92;;
45728;SDS011;31439;53.512;10.206;2023-04-06T02:25:09;8.50;;;4.55;;
45728;SDS011;31439;53.512;10.206;2023-04-06T02:27:35;6.53;;;4.35;;
45728;SDS011;31439;53.512;10.206;2023-04-06T02:30:01;6.70;;;4.18;;
45728;SDS011;31439;53.512;10.206;2023-04-06T02:32:28;7.78;;;4.75;;
45728;SDS011;31439;53.512;10.206;2023-04-06T02:34:54;7.78;;;4.30;;
45728;SDS011;31439;53.512;10.206;2023-04-06T02:37:20;6.22;;;3.90;;
45728;SDS011;31439;53.512;10.206;2023-04-06T02:39:46;6.78;;;4.22;;
45728;SDS011;31439;53.512;10.206;2023-04-06T02:42:12;7.95;;;4.45;;
45728;SDS011;31439;53.512;10.206;2023-04-06T02:44:37;6.72;;;4.28;;
45728;SDS011;31439;53.512;10.206;2023-04-06T02:47:03;8.32;;;4.85;;
45728;SDS011;31439;53.512;10.206;2023-04-06T02:49:29;7.05;;;3.90;;
45728;SDS011;31439;53.512;10.206;2023-04-06T02:51:55;7.13;;;3.97;;
45728;SDS011;31439;53.512;10.206;2023-04-06T02:54:21;6.80;;;4.13;;
45728;SDS011;31439;53.512;10.206;2023-04-06T02:56:46;10.30;;;4.57;;
45728;SDS011;31439;53.512;10.206;2023-04-06T02:59:12;7.07;;;4.35;;
45728;SDS011;31439;53.512;10.206;2023-04-06T03:01:38;6.65;;;4.10;;
45728;SDS011;31439;53.512;10.206;2023-04-06T03:04:03;6.65;;;4.50;;
45728;SDS011;31439;53.512;10.206;2023-04-06T03:06:29;7.38;;;4.55;;
45728;SDS011;31439;53.512;10.206;2023-04-06T03:08:55;6.55;;;4.40;;
45728;SDS011;31439;53.512;10.206;2023-04-06T03:11:21;6.22;;;4.20;;
45728;SDS011;31439;53.512;10.206;2023-04-06T03:13:46;7.40;;;4.43;;
45728;SDS011;31439;53.512;10.206;2023-04-06T03:16:12;6.95;;;4.60;;
45728;SDS011;31439;53.512;10.206;2023-04-06T03:18:38;9.55;;;4.70;;
45728;SDS011;31439;53.512;10.206;2023-04-06T03:21:03;7.93;;;4.70;;
45728;SDS011;31439;53.512;10.206;2023-04-06T03:23:30;7.45;;;4.60;;
45728;SDS011;31439;53.512;10.206;2023-04-06T03:25:55;10.63;;;5.18;;
45728;SDS011;31439;53.512;10.206;2023-04-06T03:28:21;7.88;;;5.15;;
45728;SDS011;31439;53.512;10.206;2023-04-06T03:30:47;10.32;;;5.22;;
45728;SDS011;31439;53.512;10.206;2023-04-06T03:33:13;6.43;;;5.28;;
45728;SDS011;31439;53.512;10.206;2023-04-06T03:35:39;7.43;;;4.68;;
45728;SDS011;31439;53.512;10.206;2023-04-06T03:38:05;9.77;;;5.57;;
45728;SDS011;31439;53.512;10.206;2023-04-06T03:40:31;7.20;;;4.95;;
45728;SDS011;31439;53.512;10.206;2023-04-06T03:42:57;9.48;;;5.43;;
45728;SDS011;31439;53.512;10.206;2023-04-06T03:45:22;9.27;;;4.95;;
45728;SDS011;31439;53.512;10.206;2023-04-06T03:47:48;11.13;;;5.38;;
45728;SDS011;31439;53.512;10.206;2023-04-06T03:50:14;9.75;;;5.13;;
45728;SDS011;31439;53.512;10.206;2023-04-06T03:52:40;7.15;;;4.43;;
45728;SDS011;31439;53.512;10.206;2023-04-06T03:55:06;9.07;;;5.18;;
45728;SDS011;31439;53.512;10.206;2023-04-06T03:57:32;9.77;;;5.28;;
45728;SDS011;31439;53.512;10.206;2023-04-06T03:59:58;7.18;;;4.70;;
45728;SDS011;31439;53.512;10.206;2023-04-06T04:02:24;10.98;;;4.90;;
45728;SDS011;31439;53.512;10.206;2023-04-06T04:04:49;8.45;;;5.43;;
45728;SDS011;31439;53.512;10.206;2023-04-06T04:07:15;11.70;;;5.55;;
45728;SDS011;31439;53.512;10.206;2023-04-06T04:09:41;8.23;;;5.20;;
45728;SDS011;31439;53.512;10.206;2023-04-06T04:12:06;9.35;;;4.88;;
45728;SDS011;31439;53.512;10.206;2023-04-06T04:14:32;7.82;;;5.22;;
45728;SDS011;31439;53.512;10.206;2023-04-06T04:16:58;8.98;;;5.43;;
45728;SDS011;31439;53.512;10.206;2023-04-06T04:19:23;9.77;;;5.47;;
45728;SDS011;31439;53.512;10.206;2023-04-06T04:21:49;9.23;;;6.13;;
45728;SDS011;31439;53.512;10.206;2023-04-06T04:24:15;9.18;;;5.75;;
45728;SDS011;31439;53.512;10.206;2023-04-06T04:26:40;8.80;;;5.30;;
45728;SDS011;31439;53.512;10.206;2023-04-06T04:29:06;9.25;;;5.45;;
45728;SDS011;31439;53.512;10.206;2023-04-06T04:31:32;10.07;;;5.57;;
45728;SDS011;31439;53.512;10.206;2023-04-06T04:33:59;10.10;;;6.18;;
45728;SDS011;31439;53.512;10.206;2023-04-06T04:36:25;10.98;;;6.80;;
45728;SDS011;31439;53.512;10.206;2023-04-06T04:38:54;8.95;;;6.00;;
45728;SDS011;31439;53.512;10.206;2023-04-06T04:41:20;8.30;;;5.57;;
45728;SDS011;31439;53.512;10.206;2023-04-06T04:43:45;8.05;;;5.45;;
45728;SDS011;31439;53.512;10.206;2023-04-06T04:46:11;8.95;;;5.57;;
45728;SDS011;31439;53.512;10.206;2023-04-06T04:48:37;11.05;;;5.40;;
45728;SDS011;31439;53.512;10.206;2023-04-06T04:51:03;9.15;;;5.05;;
45728;SDS011;31439;53.512;10.206;2023-04-06T04:53:30;9.00;;;5.68;;
45728;SDS011;31439;53.512;10.206;2023-04-06T04:55:55;12.10;;;6.13;;
45728;SDS011;31439;53.512;10.206;2023-04-06T04:58:21;9.20;;;5.18;;
45728;SDS011;31439;53.512;10.206;2023-04-06T05:00:47;8.95;;;5.55;;
45728;SDS011;31439;53.512;10.206;2023-04-06T05:03:14;8.85;;;5.25;;
45728;SDS011;31439;53.512;10.206;2023-04-06T05:05:46;7.65;;;5.28;;
45728;SDS011;31439;53.512;10.206;2023-04-06T05:08:12;9.27;;;5.35;;
45728;SDS011;31439;53.512;10.206;2023-04-06T05:10:38;9.40;;;4.88;;
45728;SDS011;31439;53.512;10.206;2023-04-06T05:13:04;9.20;;;5.35;;
45728;SDS011;31439;53.512;10.206;2023-04-06T05:15:30;10.07;;;5.32;;
45728;SDS011;31439;53.512;10.206;2023-04-06T05:17:56;8.00;;;5.25;;
45728;SDS011;31439;53.512;10.206;2023-04-06T05:20:22;7.70;;;4.90;;
45728;SDS011;31439;53.512;10.206;2023-04-06T05:22:48;8.90;;;5.25;;
45728;SDS011;31439;53.512;10.206;2023-04-06T05:25:14;7.80;;;5.43;;
45728;SDS011;31439;53.512;10.206;2023-04-06T05:27:39;9.30;;;5.25;;
45728;SDS011;31439;53.512;10.206;2023-04-06T05:30:06;10.02;;;5.43;;
45728;SDS011;31439;53.512;10.206;2023-04-06T05:32:32;8.30;;;5.10;;
45728;SDS011;31439;53.512;10.206;2023-04-06T05:34:58;9.10;;;5.05;;
45728;SDS011;31439;53.512;10.206;2023-04-06T05:37:24;8.98;;;5.85;;
45728;SDS011;31439;53.512;10.206;2023-04-06T05:39:50;9.32;;;5.85;;
45728;SDS011;31439;53.512;10.206;2023-04-06T05:42:16;9.25;;;5.60;;
45728;SDS011;31439;53.512;10.206;2023-04-06T05:44:42;8.70;;;6.13;;
45728;SDS011;31439;53.512;10.206;2023-04-06T05:47:07;9.70;;;5.43;;
45728;SDS011;31439;53.512;10.206;2023-04-06T05:49:33;8.88;;;5.93;;
45728;SDS011;31439;53.512;10.206;2023-04-06T05:51:59;11.02;;;5.68;;
45728;SDS011;31439;53.512;10.206;2023-04-06T05:54:25;9.38;;;5.97;;
45728;SDS011;31439;53.512;10.206;2023-04-06T05:56:51;7.18;;;5.40;;
45728;SDS011;31439;53.512;10.206;2023-04-06T05:59:17;11.30;;;5.65;;
45728;SDS011;31439;53.512;10.206;2023-04-06T06:01:43;9.98;;;6.00;;
45728;SDS011;31439;53.512;10.206;2023-04-06T06:04:08;9.27;;;6.07;;
45728;SDS011;31439;53.512;10.206;2023-04-06T06:06:34;9.32;;;6.20;;
45728;SDS011;31439;53.512;10.206;2023-04-06T06:09:00;9.68;;;6.25;;
45728;SDS011;31439;53.512;10.206;2023-04-06T06:11:28;10.23;;;6.57;;
45728;SDS011;31439;53.512;10.206;2023-04-06T06:13:54;10.23;;;6.28;;
45728;SDS011;31439;53.512;10.206;2023-04-06T06:16:20;8.85;;;6.25;;
45728;SDS011;31439;53.512;10.206;2023-04-06T06:18:47;11.38;;;6.50;;
45728;SDS011;31439;53.512;10.206;2023-04-06T06:21:13;10.05;;;6.28;;
45728;SDS011;31439;53.512;10.206;2023-04-06T06:23:39;7.85;;;5.75;;
45728;SDS011;31439;53.512;10.206;2023-04-06T06:26:05;11.15;;;6.25;;
45728;SDS011;31439;53.512;10.206;2023-04-06T06:28:31;9.23;;;6.45;;
45728;SDS011;31439;53.512;10.206;2023-04-06T06:30:56;9.30;;;6.38;;
45728;SDS011;31439;53.512;10.206;2023-04-06T06:33:23;10.35;;;6.43;;
45728;SDS011;31439;53.512;10.206;2023-04-06T06:35:49;8.77;;;6.55;;
45728;SDS011;31439;53.512;10.206;2023-04-06T06:38:16;10.48;;;6.63;;
45728;SDS011;31439;53.512;10.206;2023-04-06T06:40:42;11.05;;;6.82;;
45728;SDS011;31439;53.512;10.206;2023-04-06T06:43:08;12.10;;;6.65;;
45728;SDS011;31439;53.512;10.206;2023-04-06T06:45:34;15.00;;;7.00;;
45728;SDS011;31439;53.512;10.206;2023-04-06T06:48:00;10.20;;;6.65;;
45728;SDS011;31439;53.512;10.206;2023-04-06T06:50:28;13.60;;;7.82;;
45728;SDS011;31439;53.512;10.206;2023-04-06T06:52:54;11.35;;;7.30;;
45728;SDS011;31439;53.512;10.206;2023-04-06T06:55:20;12.05;;;6.80;;
45728;SDS011;31439;53.512;10.206;2023-04-06T06:57:46;10.20;;;6.68;;
45728;SDS011;31439;53.512;10.206;2023-04-06T07:00:12;8.65;;;6.50;;
45728;SDS011;31439;53.512;10.206;2023-04-06T07:02:39;12.23;;;6.75;;
45728;SDS011;31439;53.512;10.206;2023-04-06T07:05:06;9.80;;;5.97;;
45728;SDS011;31439;53.512;10.206;2023-04-06T07:07:32;8.98;;;5.70;;
45728;SDS011;31439;53.512;10.206;2023-04-06T07:09:59;8.90;;;5.70;;
45728;SDS011;31439;53.512;10.206;2023-04-06T07:12:25;10.20;;;6.00;;
45728;SDS011;31439;53.512;10.206;2023-04-06T07:14:51;12.35;;;5.65;;
45728;SDS011;31439;53.512;10.206;2023-04-06T07:17:16;12.43;;;6.60;;
45728;SDS011;31439;53.512;10.206;2023-04-06T07:19:42;11.00;;;6.22;;
45728;SDS011;31439;53.512;10.206;2023-04-06T07:22:08;9.30;;;5.40;;
45728;SDS011;31439;53.512;10.206;2023-04-06T07:24:34;9.18;;;5.90;;
45728;SDS011;31439;53.512;10.206;2023-04-06T07:26:59;9.68;;;4.90;;
45728;SDS011;31439;53.512;10.206;2023-04-06T07:29:26;9.18;;;5.18;;
45728;SDS011;31439;53.512;10.206;2023-04-06T07:31:52;9.05;;;5.18;;
45728;SDS011;31439;53.512;10.206;2023-04-06T07:34:19;8.63;;;5.03;;
45728;SDS011;31439;53.512;10.206;2023-04-06T07:36:45;8.80;;;4.85;;
45728;SDS011;31439;53.512;10.206;2023-04-06T07:39:11;11.48;;;4.85;;
45728;SDS011;31439;53.512;10.206;2023-04-06T07:41:36;9.80;;;5.20;;
45728;SDS011;31439;53.512;10.206;2023-04-06T07:44:02;7.70;;;5.10;;
45728;SDS011;31439;53.512;10.206;2023-04-06T07:46:28;9.15;;;5.15;;
45728;SDS011;31439;53.512;10.206;2023-04-06T07:48:55;11.70;;;5.03;;
45728;SDS011;31439;53.512;10.206;2023-04-06T07:51:22;8.23;;;5.30;;
45728;SDS011;31439;53.512;10.206;2023-04-06T07:53:47;6.72;;;5.20;;
45728;SDS011;31439;53.512;10.206;2023-04-06T07:56:13;8.27;;;4.80;;
45728;SDS011;31439;53.512;10.206;2023-04-06T07:58:40;10.10;;;5.70;;
45728;SDS011;31439;53.512;10.206;2023-04-06T08:01:06;10.57;;;5.35;;
45728;SDS011;31439;53.512;10.206;2023-04-06T08:03:33;8.98;;;5.03;;
45728;SDS011;31439;53.512;10.206;2023-04-06T08:05:59;8.68;;;4.72;;
45728;SDS011;31439;53.512;10.206;2023-04-06T08:08:25;9.55;;;5.38;;
45728;SDS011;31439;53.512;10.206;2023-04-06T08:10:51;8.80;;;4.70;;
45728;SDS011;31439;53.512;10.206;2023-04-06T08:13:17;10.45;;;5.15;;
45728;SDS011;31439;53.512;10.206;2023-04-06T08:15:42;7.93;;;4.88;;
45728;SDS011;31439;53.512;10.206;2023-04-06T08:18:09;12.00;;;4.38;;
45728;SDS011;31439;53.512;10.206;2023-04-06T08:20:35;6.95;;;4.68;;
45728;SDS011;31439;53.512;10.206;2023-04-06T08:23:01;9.68;;;4.70;;
45728;SDS011;31439;53.512;10.206;2023-04-06T08:25:26;6.97;;;4.20;;
45728;SDS011;31439;53.512;10.206;2023-04-06T08:27:52;7.75;;;4.50;;
45728;SDS011;31439;53.512;10.206;2023-04-06T08:30:18;6.13;;;4.03;;
45728;SDS011;31439;53.512;10.206;2023-04-06T08:32:47;7.32;;;4.10;;
45728;SDS011;31439;53.512;10.206;2023-04-06T08:35:13;8.90;;;4.82;;
45728;SDS011;31439;53.512;10.206;2023-04-06T08:37:42;8.93;;;4.68;;
45728;SDS011;31439;53.512;10.206;2023-04-06T08:40:07;9.30;;;5.35;;
45728;SDS011;31439;53.512;10.206;2023-04-06T08:42:34;9.02;;;5.05;;
45728;SDS011;31439;53.512;10.206;2023-04-06T08:45:06;7.05;;;4.50;;
45728;SDS011;31439;53.512;10.206;2023-04-06T08:47:34;9.23;;;4.60;;
45728;SDS011;31439;53.512;10.206;2023-04-06T08:50:02;7.55;;;4.10;;
45728;SDS011;31439;53.512;10.206;2023-04-06T08:52:29;8.10;;;4.55;;
45728;SDS011;31439;53.512;10.206;2023-04-06T08:54:59;10.02;;;4.60;;
45728;SDS011;31439;53.512;10.206;2023-04-06T08:57:25;10.13;;;4.50;;
45728;SDS011;31439;53.512;10.206;2023-04-06T08:59:51;6.68;;;4.60;;
45728;SDS011;31439;53.512;10.206;2023-04-06T09:02:19;7.65;;;4.32;;
45728;SDS011;31439;53.512;10.206;2023-04-06T09:04:47;5.93;;;4.13;;
45728;SDS011;31439;53.512;10.206;2023-04-06T09:07:15;7.43;;;4.40;;
45728;SDS011;31439;53.512;10.206;2023-04-06T09:09:41;7.03;;;4.07;;
45728;SDS011;31439;53.512;10.206;2023-04-06T09:12:34;9.30;;;4.25;;
45728;SDS011;31439;53.512;10.206;2023-04-06T09:14:59;8.30;;;4.25;;
45728;SDS011;31439;53.512;10.206;2023-04-06T09:17:29;7.82;;;4.22;;
45728;SDS011;31439;53.512;10.206;2023-04-06T09:19:59;8.10;;;4.32;;
45728;SDS011;31439;53.512;10.206;2023-04-06T09:22:34;8.73;;;4.45;;
45728;SDS011;31439;53.512;10.206;2023-04-06T09:25:01;10.50;;;4.80;;
45728;SDS011;31439;53.512;10.206;2023-04-06T09:27:34;5.80;;;4.25;;
45728;SDS011;31439;53.512;10.206;2023-04-06T09:32:50;7.00;;;4.28;;
45728;SDS011;31439;53.512;10.206;2023-04-06T09:35:19;10.25;;;4.63;;
45728;SDS011;31439;53.512;10.206;2023-04-06T09:37:46;9.20;;;3.80;;
45728;SDS011;31439;53.512;10.206;2023-04-06T09:40:13;7.53;;;3.75;;
45728;SDS011;31439;53.512;10.206;2023-04-06T09:42:41;6.55;;;4.22;;
45728;SDS011;31439;53.512;10.206;2023-04-06T09:45:07;6.32;;;3.58;;
45728;SDS011;31439;53.512;10.206;2023-04-06T09:47:35;7.28;;;3.40;;
45728;SDS011;31439;53.512;10.206;2023-04-06T09:50:01;8.52;;;3.50;;
45728;SDS011;31439;53.512;10.206;2023-04-06T09:52:46;7.05;;;3.55;;
45728;SDS011;31439;53.512;10.206;2023-04-06T09:55:30;4.93;;;3.05;;
45728;SDS011;31439;53.512;10.206;2023-04-06T09:58:05;5.40;;;3.25;;
45728;SDS011;31439;53.512;10.206;2023-04-06T10:00:39;5.70;;;2.95;;
45728;SDS011;31439;53.512;10.206;2023-04-06T10:06:00;6.85;;;3.50;;
45728;SDS011;31439;53.512;10.206;2023-04-06T10:08:30;7.45;;;3.30;;
45728;SDS011;31439;53.512;10.206;2023-04-06T10:11:00;4.97;;;3.22;;
45728;SDS011;31439;53.512;10.206;2023-04-06T10:13:33;9.48;;;3.72;;
45728;SDS011;31439;53.512;10.206;2023-04-06T10:15:59;5.78;;;4.10;;
45728;SDS011;31439;53.512;10.206;2023-04-06T10:18:28;6.28;;;3.80;;
45728;SDS011;31439;53.512;10.206;2023-04-06T10:21:04;6.60;;;3.90;;
45728;SDS011;31439;53.512;10.206;2023-04-06T10:23:40;7.53;;;4.25;;
45728;SDS011;31439;53.512;10.206;2023-04-06T10:26:13;7.57;;;4.22;;
45728;SDS011;31439;53.512;10.206;2023-04-06T10:28:42;5.50;;;3.83;;
45728;SDS011;31439;53.512;10.206;2023-04-06T10:34:17;8.88;;;4.43;;
45728;SDS011;31439;53.512;10.206;2023-04-06T10:36:43;7.38;;;4.47;;
45728;SDS011;31439;53.512;10.206;2023-04-06T10:39:09;9.45;;;4.68;;
45728;SDS011;31439;53.512;10.206;2023-04-06T10:41:36;6.78;;;4.32;;
45728;SDS011;31439;53.512;10.206;2023-04-06T10:44:22;8.20;;;4.93;;
45728;SDS011;31439;53.512;10.206;2023-04-06T10:46:52;6.40;;;4.32;;
45728;SDS011;31439;53.512;10.206;2023-04-06T10:49:20;6.75;;;4.90;;
45728;SDS011;31439;53.512;10.206;2023-04-06T10:51:50;7.32;;;4.53;;
45728;SDS011;31439;53.512;10.206;2023-04-06T10:54:18;7.43;;;4.80;;
45728;SDS011;31439;53.512;10.206;2023-04-06T10:56:46;9.15;;;4.88;;
45728;SDS011;31439;53.512;10.206;2023-04-06T10:59:12;7.78;;;4.78;;
45728;SDS011;31439;53.512;10.206;2023-04-06T11:01:38;9.93;;;4.95;;
45728;SDS011;31439;53.512;10.206;2023-04-06T11:04:09;7.75;;;4.78;;
45728;SDS011;31439;53.512;10.206;2023-04-06T11:06:38;8.80;;;5.10;;
45728;SDS011;31439;53.512;10.206;2023-04-06T11:09:04;7.32;;;4.75;;
45728;SDS011;31439;53.512;10.206;2023-04-06T11:11:30;7.85;;;5.40;;
45728;SDS011;31439;53.512;10.206;2023-04-06T11:13:56;9.20;;;5.97;;
45728;SDS011;31439;53.512;10.206;2023-04-06T11:18:59;10.52;;;5.65;;
45728;SDS011;31439;53.512;10.206;2023-04-06T11:26:41;7.07;;;4.93;;
45728;SDS011;31439;53.512;10.206;2023-04-06T11:29:09;9.52;;;5.00;;
45728;SDS011;31439;53.512;10.206;2023-04-06T11:31:40;9.57;;;5.47;;
45728;SDS011;31439;53.512;10.206;2023-04-06T11:34:24;7.45;;;5.00;;
45728;SDS011;31439;53.512;10.206;2023-04-06T11:36:57;9.43;;;5.90;;
45728;SDS011;31439;53.512;10.206;2023-04-06T11:39:24;9.68;;;6.10;;
45728;SDS011;31439;53.512;10.206;2023-04-06T11:41:52;9.52;;;5.95;;
45728;SDS011;31439;53.512;10.206;2023-04-06T11:44:35;8.48;;;6.03;;
45728;SDS011;31439;53.512;10.206;2023-04-06T11:47:06;9.68;;;5.82;;
45728;SDS011;31439;53.512;10.206;2023-04-06T11:49:33;8.63;;;5.65;;
45728;SDS011;31439;53.512;10.206;2023-04-06T11:52:02;10.07;;;5.90;;
45728;SDS011;31439;53.512;10.206;2023-04-06T11:54:39;11.60;;;6.15;;
45728;SDS011;31439;53.512;10.206;2023-04-06T11:57:06;9.38;;;6.10;;
45728;SDS011;31439;53.512;10.206;2023-04-06T11:59:33;8.10;;;5.70;;
45728;SDS011;31439;53.512;10.206;2023-04-06T12:01:59;8.88;;;5.72;;
45728;SDS011;31439;53.512;10.206;2023-04-06T12:04:26;8.90;;;5.53;;
45728;SDS011;31439;53.512;10.206;2023-04-06T12:06:52;8.98;;;5.53;;
45728;SDS011;31439;53.512;10.206;2023-04-06T12:09:18;8.48;;;6.30;;
45728;SDS011;31439;53.512;10.206;2023-04-06T12:11:44;9.77;;;5.95;;
45728;SDS011;31439;53.512;10.206;2023-04-06T12:14:10;9.20;;;6.03;;
45728;SDS011;31439;53.512;10.206;2023-04-06T12:16:36;9.77;;;6.35;;
45728;SDS011;31439;53.512;10.206;2023-04-06T12:19:02;6.97;;;5.55;;
45728;SDS011;31439;53.512;10.206;2023-04-06T12:21:28;10.73;;;7.22;;
45728;SDS011;31439;53.512;10.206;2023-04-06T12:23:56;8.75;;;5.93;;
45728;SDS011;31439;53.512;10.206;2023-04-06T12:26:25;8.40;;;6.03;;
45728;SDS011;31439;53.512;10.206;2023-04-06T12:28:52;10.57;;;6.20;;
45728;SDS011;31439;53.512;10.206;2023-04-06T12:31:18;9.10;;;5.95;;
45728;SDS011;31439;53.512;10.206;2023-04-06T12:33:46;11.48;;;6.20;;
45728;SDS011;31439;53.512;10.206;2023-04-06T12:36:16;10.18;;;6.95;;
45728;SDS011;31439;53.512;10.206;2023-04-06T12:38:44;8.60;;;6.20;;
45728;SDS011;31439;53.512;10.206;2023-04-06T12:41:13;9.38;;;6.10;;
45728;SDS011;31439;53.512;10.206;2023-04-06T12:43:40;8.02;;;6.07;;
45728;SDS011;31439;53.512;10.206;2023-04-06T12:46:07;8.13;;;5.80;;
45728;SDS011;31439;53.512;10.206;2023-04-06T12:48:33;8.93;;;6.05;;
45728;SDS011;31439;53.512;10.206;2023-04-06T12:51:00;8.57;;;6.20;;
45728;SDS011;31439;53.512;10.206;2023-04-06T12:53:27;8.32;;;6.45;;
45728;SDS011;31439;53.512;10.206;2023-04-06T12:55:56;8.93;;;5.57;;
45728;SDS011;31439;53.512;10.206;2023-04-06T12:58:22;8.80;;;5.93;;
45728;SDS011;31439;53.512;10.206;2023-04-06T13:00:49;9.18;;;6.00;;
45728;SDS011;31439;53.512;10.206;2023-04-06T13:03:15;9.77;;;6.55;;
45728;SDS011;31439;53.512;10.206;2023-04-06T13:05:45;10.40;;;5.97;;
45728;SDS011;31439;53.512;10.206;2023-04-06T13:08:12;9.60;;;6.20;;
45728;SDS011;31439;53.512;10.206;2023-04-06T13:10:48;8.38;;;5.50;;
45728;SDS011;31439;53.512;10.206;2023-04-06T13:13:22;9.57;;;5.78;;
45728;SDS011;31439;53.512;10.206;2023-04-06T13:15:49;9.50;;;5.75;;
45728;SDS011;31439;53.512;10.206;2023-04-06T13:18:16;8.82;;;5.65;;
45728;SDS011;31439;53.512;10.206;2023-04-06T13:20:41;8.52;;;5.95;;
45728;SDS011;31439;53.512;10.206;2023-04-06T13:23:07;10.55;;;6.82;;
45728;SDS011;31439;53.512;10.206;2023-04-06T13:25:33;9.18;;;5.93;;
45728;SDS011;31439;53.512;10.206;2023-04-06T13:28:00;8.60;;;5.72;;
45728;SDS011;31439;53.512;10.206;2023-04-06T13:30:26;7.15;;;5.95;;
45728;SDS011;31439;53.512;10.206;2023-04-06T13:32:52;8.85;;;6.30;;
45728;SDS011;31439;53.512;10.206;2023-04-06T13:35:17;8.35;;;5.82;;
45728;SDS011;31439;53.512;10.206;2023-04-06T13:37:44;8.05;;;6.00;;
45728;SDS011;31439;53.512;10.206;2023-04-06T13:40:10;9.52;;;6.32;;
45728;SDS011;31439;53.512;10.206;2023-04-06T13:42:36;10.45;;;6.22;;
45728;SDS011;31439;53.512;10.206;2023-04-06T13:45:03;11.30;;;6.22;;
45728;SDS011;31439;53.512;10.206;2023-04-06T13:47:29;9.20;;;6.10;;
45728;SDS011;31439;53.512;10.206;2023-04-06T13:49:55;8.50;;;6.05;;
45728;SDS011;31439;53.512;10.206;2023-04-06T13:52:21;9.05;;;6.45;;
45728;SDS011;31439;53.512;10.206;2023-04-06T13:54:46;7.68;;;5.85;;
45728;SDS011;31439;53.512;10.206;2023-04-06T13:57:13;9.82;;;6.30;;
45728;SDS011;31439;53.512;10.206;2023-04-06T13:59:39;9.35;;;6.55;;
45728;SDS011;31439;53.512;10.206;2023-04-06T14:02:06;9.85;;;7.25;;
45728;SDS011;31439;53.512;10.206;2023-04-06T14:04:33;8.43;;;6.55;;
45728;SDS011;31439;53.512;10.206;2023-04-06T14:07:00;7.30;;;6.00;;
45728;SDS011;31439;53.512;10.206;2023-04-06T14:09:26;7.18;;;5.95;;
45728;SDS011;31439;53.512;10.206;2023-04-06T14:11:53;9.15;;;6.50;;
45728;SDS011;31439;53.512;10.206;2023-04-06T14:14:19;7.50;;;5.95;;
45728;SDS011;31439;53.512;10.206;2023-04-06T14:16:46;9.30;;;6.55;;
45728;SDS011;31439;53.512;10.206;2023-04-06T14:19:12;8.38;;;6.50;;
45728;SDS011;31439;53.512;10.206;2023-04-06T14:21:40;9.93;;;6.65;;
45728;SDS011;31439;53.512;10.206;2023-04-06T14:24:06;8.50;;;5.90;;
45728;SDS011;31439;53.512;10.206;2023-04-06T14:26:35;9.10;;;6.22;;
45728;SDS011;31439;53.512;10.206;2023-04-06T14:29:02;10.50;;;6.40;;
45728;SDS011;31439;53.512;10.206;2023-04-06T14:31:29;9.02;;;6.43;;
45728;SDS011;31439;53.512;10.206;2023-04-06T14:33:55;8.35;;;6.20;;
45728;SDS011;31439;53.512;10.206;2023-04-06T14:36:21;8.20;;;6.50;;
45728;SDS011;31439;53.512;10.206;2023-04-06T14:38:46;9.07;;;5.93;;
45728;SDS011;31439;53.512;10.206;2023-04-06T14:41:16;9.50;;;6.95;;
45728;SDS011;31439;53.512;10.206;2023-04-06T14:43:45;9.23;;;6.80;;
45728;SDS011;31439;53.512;10.206;2023-04-06T14:46:11;9.02;;;6.28;;
45728;SDS011;31439;53.512;10.206;2023-04-06T14:48:37;10.68;;;5.88;;